Time;durP1;ratioP1;P1;durP2;ratioP2;P2;SDS_P1;SDS_P2;PMS_P1;PMS_P2;Temp;Humidity;BMP_temperature;BMP_pressure;BME280_temperature;BME280_humidity;BME280_pressure;Samples;Min_cycle;Max_cycle;Signal;HPM_P1;HPM_P2
2023/09/01 00:01:25;;;;;;;5.68;3.33;;;;;;;;;;5090670;28;20042;-71
2023/09/01 00:03:51;;;;;;;13.25;3.60;;;;;;;;;;5086769;28;20161;-71
2023/09/01 00:06:17;;;;;;;6.68;3.75;;;;;;;;;;5090144;28;20054;-71
2023/09/01 00:08:43;;;;;;;13.02;4.28;;;;;;;;;;5073231;28;20029;-71
2023/09/01 00:11:08;;;;;;;8.20;4.45;;;;;;;;;;5073447;28;20028;-71
2023/09/01 00:13:33;;;;;;;6.80;4.13;;;;;;;;;;5073409;28;20070;-71
2023/09/01 00:15:58;;;;;;;9.88;3.70;;;;;;;;;;5089266;28;20274;-71
2023/09/01 00:18:24;;;;;;;8.98;3.72;;;;;;;;;;5084771;28;20031;-71
2023/09/01 00:20:49;;;;;;;6.25;3.80;;;;;;;;;;5090548;28;20020;-71
2023/09/01 00:23:14;;;;;;;11.25;4.20;;;;;;;;;;5088638;28;20017;-71
2023/09/01 00:25:39;;;;;;;7.25;4.20;;;;;;;;;;5092788;28;20541;-71
2023/09/01 00:28:05;;;;;;;8.35;4.68;;;;;;;;;;5086236;28;20025;-71
2023/09/01 00:30:30;;;;;;;7.47;4.40;;;;;;;;;;5072901;28;20119;-71
2023/09/01 00:32:55;;;;;;;8.07;4.47;;;;;;;;;;5078514;28;20039;-71
2023/09/01 00:35:21;;;;;;;9.13;4.53;;;;;;;;;;5092781;28;20321;-71
2023/09/01 00:37:46;;;;;;;11.87;4.57;;;;;;;;;;5076492;28;20033;-70
2023/09/01 00:40:11;;;;;;;8.20;4.67;;;;;;;;;;5072975;28;20297;-71
2023/09/01 00:42:36;;;;;;;7.88;4.15;;;;;;;;;;5072450;28;20266;-71
2023/09/01 00:45:03;;;;;;;7.67;5.30;;;;;;;;;;5076447;28;20090;-70
2023/09/01 00:47:28;;;;;;;12.60;5.28;;;;;;;;;;5076982;28;20346;-70
2023/09/01 00:49:53;;;;;;;10.15;4.95;;;;;;;;;;5072366;28;20066;-70
2023/09/01 00:52:18;;;;;;;9.23;5.67;;;;;;;;;;5085919;28;20024;-70
2023/09/01 00:54:44;;;;;;;8.65;5.10;;;;;;;;;;5073683;28;20271;-70
2023/09/01 00:57:09;;;;;;;13.55;5.80;;;;;;;;;;5092501;28;20028;-70
2023/09/01 00:59:36;;;;;;;10.30;5.47;;;;;;;;;;5082071;28;20034;-70
2023/09/01 01:02:01;;;;;;;10.20;5.43;;;;;;;;;;5071803;28;20348;-69
2023/09/01 01:04:27;;;;;;;8.63;5.25;;;;;;;;;;5072298;28;20422;-70
2023/09/01 01:07:25;;;;;;;9.00;5.03;;;;;;;;;;5072262;28;20024;-69
2023/09/01 01:09:56;;;;;;;12.77;5.20;;;;;;;;;;5048570;28;20071;-69
2023/09/01 01:12:25;;;;;;;7.78;5.07;;;;;;;;;;5085691;28;20031;-69
2023/09/01 01:14:54;;;;;;;8.07;5.50;;;;;;;;;;5084578;28;20032;-70
2023/09/01 01:17:19;;;;;;;7.78;5.45;;;;;;;;;;5072034;28;20085;-69
2023/09/01 01:19:52;;;;;;;15.40;5.75;;;;;;;;;;5072233;28;20477;-69
2023/09/01 01:22:38;;;;;;;9.50;5.25;;;;;;;;;;5071978;28;20023;-69
2023/09/01 01:25:08;;;;;;;7.63;5.55;;;;;;;;;;5083718;28;20028;-69
2023/09/01 01:27:33;;;;;;;9.07;5.75;;;;;;;;;;5074762;28;20032;-69
2023/09/01 01:29:58;;;;;;;10.95;5.60;;;;;;;;;;5082358;28;20020;-68
2023/09/01 01:32:24;;;;;;;7.30;5.45;;;;;;;;;;5088411;28;20048;-67
2023/09/01 01:34:54;;;;;;;12.73;6.10;;;;;;;;;;5071765;28;20028;-68
2023/09/01 01:37:27;;;;;;;11.75;5.93;;;;;;;;;;5076170;28;20080;-67
2023/09/01 01:39:53;;;;;;;11.20;6.32;;;;;;;;;;5090924;28;20020;-68
2023/09/01 01:42:19;;;;;;;7.03;5.10;;;;;;;;;;5089725;28;20024;-68
2023/09/01 01:44:47;;;;;;;8.75;5.40;;;;;;;;;;5078842;28;20017;-68
2023/09/01 01:47:13;;;;;;;7.43;5.68;;;;;;;;;;5085790;28;20017;-68
2023/09/01 01:49:38;;;;;;;7.80;5.40;;;;;;;;;;5072180;28;20357;-67
2023/09/01 01:52:04;;;;;;;8.02;5.18;;;;;;;;;;5073362;28;20081;-68
2023/09/01 01:54:30;;;;;;;10.63;5.78;;;;;;;;;;5072334;28;20039;-68
2023/09/01 01:56:55;;;;;;;7.90;5.05;;;;;;;;;;5074852;28;20024;-68
2023/09/01 01:59:20;;;;;;;8.85;6.10;;;;;;;;;;5065875;28;20269;-68
2023/09/01 02:01:45;;;;;;;8.83;5.83;;;;;;;;;;5076664;28;20072;-68
2023/09/01 02:04:11;;;;;;;9.50;6.70;;;;;;;;;;5073140;28;20282;-68
2023/09/01 02:06:36;;;;;;;8.33;5.80;;;;;;;;;;5074792;28;20424;-68
2023/09/01 02:09:03;;;;;;;11.45;5.70;;;;;;;;;;5075791;28;20289;-68
2023/09/01 02:11:28;;;;;;;10.52;6.95;;;;;;;;;;5077603;28;20475;-68
2023/09/01 02:13:53;;;;;;;7.05;5.80;;;;;;;;;;5089592;28;20027;-68
2023/09/01 02:16:18;;;;;;;11.13;6.70;;;;;;;;;;5089469;28;20024;-68
2023/09/01 02:18:44;;;;;;;12.05;7.20;;;;;;;;;;5089955;28;20094;-70
2023/09/01 02:21:16;;;;;;;8.67;7.00;;;;;;;;;;5090159;28;20447;-68
2023/09/01 02:23:42;;;;;;;14.20;6.50;;;;;;;;;;5090173;28;20373;-68
2023/09/01 02:26:07;;;;;;;12.23;7.30;;;;;;;;;;5089295;28;20081;-68
2023/09/01 02:28:32;;;;;;;9.30;7.30;;;;;;;;;;5087448;28;20312;-68
2023/09/01 02:30:57;;;;;;;10.20;7.90;;;;;;;;;;5072543;28;20278;-68
2023/09/01 02:33:22;;;;;;;10.27;7.40;;;;;;;;;;5071352;28;20271;-68
2023/09/01 02:35:48;;;;;;;12.18;8.05;;;;;;;;;;5077427;28;20369;-67
2023/09/01 02:38:13;;;;;;;9.13;8.02;;;;;;;;;;5090487;28;20020;-67
2023/09/01 02:40:39;;;;;;;11.65;7.68;;;;;;;;;;5086953;28;20034;-68
2023/09/01 02:43:04;;;;;;;8.23;7.05;;;;;;;;;;5088678;28;20025;-67
2023/09/01 02:45:29;;;;;;;9.18;7.57;;;;;;;;;;5086647;28;20026;-67
2023/09/01 02:47:55;;;;;;;10.25;8.55;;;;;;;;;;5088838;28;20078;-67
2023/09/01 02:50:20;;;;;;;9.73;8.60;;;;;;;;;;5084703;28;20471;-67
2023/09/01 02:52:45;;;;;;;11.63;8.48;;;;;;;;;;5088586;28;20697;-67
2023/09/01 02:55:10;;;;;;;10.87;8.83;;;;;;;;;;5087406;28;20050;-67
2023/09/01 02:57:36;;;;;;;11.13;8.65;;;;;;;;;;5089209;28;20357;-67
2023/09/01 03:00:14;;;;;;;14.88;8.95;;;;;;;;;;5086510;28;20396;-67
2023/09/01 03:02:39;;;;;;;12.38;8.45;;;;;;;;;;5089276;28;20032;-67
2023/09/01 03:05:04;;;;;;;13.55;8.55;;;;;;;;;;5087060;28;20031;-68
2023/09/01 03:07:30;;;;;;;13.30;8.35;;;;;;;;;;5088304;28;20043;-68
2023/09/01 03:09:55;;;;;;;11.60;8.10;;;;;;;;;;5082816;28;20020;-68
2023/09/01 03:12:20;;;;;;;9.25;8.35;;;;;;;;;;5087402;28;20031;-68
2023/09/01 03:14:45;;;;;;;10.40;9.15;;;;;;;;;;5094160;28;20024;-68
2023/09/01 03:17:11;;;;;;;18.60;10.53;;;;;;;;;;5093775;28;20067;-69
2023/09/01 03:19:38;;;;;;;11.70;10.48;;;;;;;;;;5093821;28;20845;-69
2023/09/01 03:22:04;;;;;;;11.93;9.10;;;;;;;;;;5079316;28;20036;-68
2023/09/01 03:24:29;;;;;;;10.43;8.57;;;;;;;;;;5081495;28;20458;-69
2023/09/01 03:26:54;;;;;;;13.45;9.70;;;;;;;;;;5093368;28;20099;-69
2023/09/01 03:29:20;;;;;;;14.07;10.25;;;;;;;;;;5080641;28;20020;-69
2023/09/01 03:31:45;;;;;;;15.60;10.05;;;;;;;;;;5081921;28;20024;-69
2023/09/01 03:34:10;;;;;;;10.73;9.67;;;;;;;;;;5074052;28;20039;-69
2023/09/01 03:36:36;;;;;;;11.57;9.85;;;;;;;;;;5073400;28;20749;-69
2023/09/01 03:39:02;;;;;;;13.68;11.10;;;;;;;;;;5087195;28;20132;-69
2023/09/01 03:41:27;;;;;;;11.38;10.30;;;;;;;;;;5085669;28;20355;-70
2023/09/01 03:43:52;;;;;;;15.50;10.23;;;;;;;;;;5088528;28;20066;-70
2023/09/01 03:46:17;;;;;;;10.90;9.77;;;;;;;;;;5084891;28;20274;-70
2023/09/01 03:48:42;;;;;;;11.53;10.17;;;;;;;;;;5091795;28;20315;-70
2023/09/01 03:51:15;;;;;;;17.80;10.35;;;;;;;;;;5092752;28;20281;-70
2023/09/01 03:53:41;;;;;;;12.23;10.90;;;;;;;;;;5091163;28;20024;-70
2023/09/01 03:56:16;;;;;;;10.75;9.70;;;;;;;;;;5092157;28;20034;-70
2023/09/01 03:58:41;;;;;;;11.50;10.38;;;;;;;;;;5085522;28;20090;-70
2023/09/01 04:01:08;;;;;;;11.13;9.85;;;;;;;;;;5069887;28;20037;-68
2023/09/01 04:03:36;;;;;;;10.77;9.68;;;;;;;;;;5058930;28;20039;-68
2023/09/01 04:06:03;;;;;;;9.57;4.75;;;;;;;;;;5074572;28;20078;-68
2023/09/01 04:08:28;;;;;;;10.98;8.88;;;;;;;;;;5079550;28;20028;-70
2023/09/01 04:10:54;;;;;;;11.98;9.18;;;;;;;;;;5039842;28;20823;-70
2023/09/01 04:13:19;;;;;;;10.15;8.05;;;;;;;;;;5040045;28;20024;-69
2023/09/01 04:15:44;;;;;;;14.35;8.82;;;;;;;;;;5054019;28;20097;-70
2023/09/01 04:18:09;;;;;;;7.57;6.82;;;;;;;;;;5052103;28;20035;-70
2023/09/01 04:20:35;;;;;;;7.65;6.30;;;;;;;;;;5050518;28;20489;-69
2023/09/01 04:23:00;;;;;;;9.80;6.10;;;;;;;;;;5038010;28;20062;-70
2023/09/01 04:25:25;;;;;;;8.57;4.93;;;;;;;;;;5050184;28;20028;-70
2023/09/01 04:27:50;;;;;;;7.53;5.68;;;;;;;;;;5034266;28;20900;-71
2023/09/01 04:30:16;;;;;;;6.15;3.70;;;;;;;;;;5034210;28;20033;-70
2023/09/01 04:32:43;;;;;;;7.32;4.07;;;;;;;;;;5046906;28;20043;-70
2023/09/01 04:35:08;;;;;;;7.43;3.65;;;;;;;;;;5038109;28;20032;-71
2023/09/01 04:37:35;;;;;;;4.47;3.15;;;;;;;;;;5028704;28;20098;-71
2023/09/01 04:40:01;;;;;;;4.53;3.03;;;;;;;;;;5033468;28;20249;-70
2023/09/01 04:42:26;;;;;;;4.50;2.95;;;;;;;;;;5048530;28;20566;-70
2023/09/01 04:44:51;;;;;;;4.73;2.83;;;;;;;;;;5048584;28;20028;-71
2023/09/01 04:47:17;;;;;;;5.30;3.28;;;;;;;;;;5038745;28;20289;-70
2023/09/01 04:49:42;;;;;;;5.60;2.93;;;;;;;;;;5037673;28;20148;-68
2023/09/01 04:52:07;;;;;;;4.85;2.95;;;;;;;;;;5049910;28;20282;-69
2023/09/01 04:54:32;;;;;;;5.82;3.25;;;;;;;;;;5044513;28;20127;-69
2023/09/01 04:56:58;;;;;;;4.00;2.90;;;;;;;;;;5038829;28;20025;-69
2023/09/01 04:59:23;;;;;;;5.40;3.60;;;;;;;;;;5045884;28;20309;-69
2023/09/01 05:01:49;;;;;;;5.65;3.40;;;;;;;;;;5044868;28;20127;-69
2023/09/01 05:04:15;;;;;;;6.38;3.15;;;;;;;;;;5038255;28;20135;-68
2023/09/01 05:06:40;;;;;;;5.07;2.80;;;;;;;;;;5038257;28;20024;-69
2023/09/01 05:09:06;;;;;;;5.20;3.13;;;;;;;;;;5051780;28;20042;-69
2023/09/01 05:11:31;;;;;;;6.30;3.23;;;;;;;;;;5032027;28;20020;-69
2023/09/01 05:13:56;;;;;;;7.88;3.10;;;;;;;;;;5039987;28;20360;-69
2023/09/01 05:16:21;;;;;;;4.43;2.78;;;;;;;;;;5046482;28;20028;-69
2023/09/01 05:18:46;;;;;;;4.40;2.47;;;;;;;;;;5033477;28;20064;-69
2023/09/01 05:21:12;;;;;;;4.90;3.20;;;;;;;;;;5046235;28;20335;-69
2023/09/01 05:23:37;;;;;;;5.43;3.05;;;;;;;;;;5061709;28;20345;-69
2023/09/01 05:26:03;;;;;;;4.57;2.80;;;;;;;;;;5091595;28;20016;-69
2023/09/01 05:28:28;;;;;;;6.30;3.57;;;;;;;;;;5080809;28;20025;-69
2023/09/01 05:30:55;;;;;;;5.60;3.53;;;;;;;;;;5071578;28;20630;-69
2023/09/01 05:33:20;;;;;;;6.65;4.13;;;;;;;;;;5083220;28;20027;-69
2023/09/01 05:35:45;;;;;;;5.93;3.80;;;;;;;;;;5073670;28;20028;-68
2023/09/01 05:38:11;;;;;;;6.32;4.10;;;;;;;;;;5071919;28;20298;-68
2023/09/01 05:40:37;;;;;;;5.43;3.45;;;;;;;;;;5072535;28;20021;-68
2023/09/01 05:43:02;;;;;;;5.80;3.85;;;;;;;;;;5072530;28;20074;-68
2023/09/01 05:45:28;;;;;;;5.53;3.95;;;;;;;;;;5075334;28;20017;-69
2023/09/01 05:47:56;;;;;;;6.97;3.97;;;;;;;;;;5074074;28;20021;-68
2023/09/01 05:50:21;;;;;;;5.78;3.53;;;;;;;;;;5074721;28;20285;-68
2023/09/01 05:52:46;;;;;;;5.90;3.60;;;;;;;;;;5074356;28;20028;-68
2023/09/01 05:55:13;;;;;;;6.17;4.17;;;;;;;;;;5075400;28;20274;-68
2023/09/01 05:57:38;;;;;;;6.30;4.43;;;;;;;;;;5074430;28;20634;-68
2023/09/01 06:00:04;;;;;;;6.47;4.27;;;;;;;;;;5074903;28;20021;-68
2023/09/01 06:02:29;;;;;;;6.80;4.10;;;;;;;;;;5073758;28;20753;-69
2023/09/01 06:04:54;;;;;;;9.20;4.97;;;;;;;;;;5075110;28;20471;-68
2023/09/01 06:07:19;;;;;;;6.53;4.30;;;;;;;;;;5075066;28;20647;-68
2023/09/01 06:09:45;;;;;;;6.20;3.80;;;;;;;;;;5074844;28;20032;-68
2023/09/01 06:12:11;;;;;;;6.50;4.10;;;;;;;;;;5083359;28;20278;-68
2023/09/01 06:14:36;;;;;;;6.50;4.88;;;;;;;;;;5088776;28;20819;-68
2023/09/01 06:17:02;;;;;;;6.55;4.45;;;;;;;;;;5090402;28;20040;-68
2023/09/01 06:19:27;;;;;;;8.00;4.85;;;;;;;;;;5089858;28;20035;-68
2023/09/01 06:21:53;;;;;;;8.27;5.37;;;;;;;;;;5089810;28;20048;-68
2023/09/01 06:24:18;;;;;;;8.93;5.53;;;;;;;;;;5088870;28;20270;-68
2023/09/01 06:26:43;;;;;;;7.13;5.28;;;;;;;;;;5090650;28;20420;-67
2023/09/01 06:29:08;;;;;;;8.38;5.55;;;;;;;;;;5077246;28;20016;-67
2023/09/01 06:31:35;;;;;;;6.90;5.38;;;;;;;;;;5091689;28;20471;-67
2023/09/01 06:34:01;;;;;;;7.15;5.35;;;;;;;;;;5080621;28;20476;-67
2023/09/01 06:36:26;;;;;;;7.93;5.15;;;;;;;;;;5076033;28;20050;-67
2023/09/01 06:38:51;;;;;;;6.18;5.00;;;;;;;;;;5078381;28;20032;-68
2023/09/01 06:41:16;;;;;;;7.38;5.28;;;;;;;;;;5054367;28;20078;-67
2023/09/01 06:43:42;;;;;;;6.40;4.78;;;;;;;;;;5041050;28;20090;-67
2023/09/01 06:46:07;;;;;;;6.53;4.75;;;;;;;;;;5047125;28;20024;-67
2023/09/01 06:48:32;;;;;;;7.27;5.37;;;;;;;;;;5045780;28;20021;-67
2023/09/01 06:51:01;;;;;;;7.60;5.53;;;;;;;;;;5035211;28;20271;-67
2023/09/01 06:53:27;;;;;;;6.45;4.63;;;;;;;;;;5043173;28;20820;-67
2023/09/01 06:55:52;;;;;;;7.85;5.47;;;;;;;;;;5042092;28;20031;-67
2023/09/01 06:58:17;;;;;;;6.70;5.13;;;;;;;;;;5040860;28;20397;-67
2023/09/01 07:00:42;;;;;;;7.93;5.13;;;;;;;;;;5044433;28;20459;-67
2023/09/01 07:03:08;;;;;;;6.43;4.57;;;;;;;;;;5083731;28;20016;-67
2023/09/01 07:05:34;;;;;;;7.85;4.78;;;;;;;;;;5078958;28;20019;-67
2023/09/01 07:07:59;;;;;;;6.45;4.60;;;;;;;;;;5083197;28;20016;-67
2023/09/01 07:10:24;;;;;;;5.95;4.43;;;;;;;;;;5055061;28;20023;-66
2023/09/01 07:12:49;;;;;;;6.35;4.78;;;;;;;;;;5037100;28;20883;-67
2023/09/01 07:15:15;;;;;;;5.95;4.32;;;;;;;;;;5042161;28;20059;-68
2023/09/01 07:17:40;;;;;;;6.03;4.53;;;;;;;;;;5041754;28;20067;-67
2023/09/01 07:20:06;;;;;;;6.50;5.00;;;;;;;;;;5046247;28;20085;-67
2023/09/01 07:22:31;;;;;;;6.00;4.60;;;;;;;;;;5074869;28;20752;-67
2023/09/01 07:24:56;;;;;;;6.55;4.70;;;;;;;;;;5082154;28;20372;-67
2023/09/01 07:27:21;;;;;;;5.85;4.90;;;;;;;;;;5039425;28;20048;-67
2023/09/01 07:29:48;;;;;;;9.20;5.97;;;;;;;;;;5042676;28;20126;-67
2023/09/01 07:32:14;;;;;;;8.75;6.07;;;;;;;;;;5049003;28;20048;-67
2023/09/01 07:34:39;;;;;;;8.65;5.68;;;;;;;;;;5043946;28;20077;-67
2023/09/01 07:37:05;;;;;;;8.93;6.15;;;;;;;;;;5037820;28;20174;-67
2023/09/01 07:39:30;;;;;;;7.97;6.22;;;;;;;;;;5047886;28;20880;-67
2023/09/01 07:41:56;;;;;;;8.63;6.90;;;;;;;;;;5045649;28;20132;-67
2023/09/01 07:44:21;;;;;;;7.27;5.83;;;;;;;;;;5035820;28;20048;-67
2023/09/01 07:46:46;;;;;;;7.40;6.03;;;;;;;;;;5047693;28;20375;-66
2023/09/01 07:49:11;;;;;;;8.07;5.63;;;;;;;;;;5093104;28;20281;-67
2023/09/01 07:51:38;;;;;;;7.25;5.63;;;;;;;;;;5090661;28;20293;-68
2023/09/01 07:54:03;;;;;;;7.13;5.80;;;;;;;;;;5092755;28;20032;-68
2023/09/01 07:56:29;;;;;;;8.38;6.30;;;;;;;;;;5078985;28;20368;-67
2023/09/01 07:58:54;;;;;;;8.60;6.18;;;;;;;;;;5086991;28;20490;-67
2023/09/01 08:01:19;;;;;;;7.70;5.63;;;;;;;;;;5089002;28;20024;-67
2023/09/01 08:03:44;;;;;;;7.20;5.45;;;;;;;;;;5090729;28;20609;-67
2023/09/01 08:06:10;;;;;;;8.65;6.20;;;;;;;;;;5089246;28;20040;-67
2023/09/01 08:08:35;;;;;;;6.82;5.55;;;;;;;;;;5089764;28;20379;-68
2023/09/01 08:11:00;;;;;;;6.85;5.55;;;;;;;;;;5080394;28;20028;-67
2023/09/01 08:13:26;;;;;;;8.33;5.17;;;;;;;;;;5079216;28;20426;-67
2023/09/01 08:15:54;;;;;;;8.20;5.65;;;;;;;;;;5085934;28;20282;-67
2023/09/01 08:18:19;;;;;;;6.18;4.53;;;;;;;;;;5084747;28;20028;-67
2023/09/01 08:20:44;;;;;;;6.78;4.45;;;;;;;;;;5085330;28;20036;-69
2023/09/01 08:23:10;;;;;;;5.55;4.50;;;;;;;;;;5084495;28;20549;-67
2023/09/01 08:25:36;;;;;;;6.47;4.53;;;;;;;;;;5078257;28;20028;-66
2023/09/01 08:28:03;;;;;;;4.57;3.72;;;;;;;;;;5079504;28;20028;-67
2023/09/01 08:30:28;;;;;;;6.55;3.30;;;;;;;;;;5079818;28;20039;-67
2023/09/01 08:32:53;;;;;;;5.13;2.83;;;;;;;;;;5080735;28;20024;-67
2023/09/01 08:35:18;;;;;;;4.53;2.57;;;;;;;;;;5073003;28;20028;-67
2023/09/01 08:37:44;;;;;;;3.72;2.00;;;;;;;;;;5085086;28;20294;-67
2023/09/01 08:40:10;;;;;;;5.50;3.45;;;;;;;;;;5072832;28;20069;-68
2023/09/01 08:42:37;;;;;;;3.78;2.70;;;;;;;;;;5074963;28;20098;-68
2023/09/01 08:45:03;;;;;;;5.40;4.00;;;;;;;;;;5085604;28;20035;-68
2023/09/01 08:47:31;;;;;;;4.38;3.22;;;;;;;;;;5082629;28;20052;-68
2023/09/01 08:49:56;;;;;;;1.95;1.10;;;;;;;;;;5085322;28;20028;-68
2023/09/01 08:52:22;;;;;;;3.13;1.63;;;;;;;;;;5083143;28;20032;-70
2023/09/01 08:54:48;;;;;;;3.85;1.83;;;;;;;;;;5084316;28;20383;-68
2023/09/01 08:57:13;;;;;;;2.10;0.90;;;;;;;;;;5082204;28;20039;-70
2023/09/01 08:59:38;;;;;;;4.30;2.10;;;;;;;;;;5084004;28;20030;-69
2023/09/01 09:02:05;;;;;;;3.30;1.60;;;;;;;;;;5082037;28;20027;-71
2023/09/01 09:04:31;;;;;;;2.10;0.88;;;;;;;;;;5085073;28;20098;-69
2023/09/01 09:07:10;;;;;;;4.47;2.70;;;;;;;;;;5086338;28;20023;-68
2023/09/01 09:09:50;;;;;;;14.40;10.10;;;;;;;;;;5082079;28;20028;-68
2023/09/01 09:12:16;;;;;;;7.65;5.50;;;;;;;;;;5054682;28;20929;-68
2023/09/01 09:14:50;;;;;;;7.47;5.25;;;;;;;;;;5049424;28;20055;-68
2023/09/01 09:17:15;;;;;;;;;;;;;;;;;;5086714;28;20095;-68
2023/09/01 09:19:49;;;;;;;5.50;4.00;;;;;;;;;;5084477;28;20006;-69
2023/09/01 09:22:15;;;;;;;;;;;;;;;;;;5091280;28;20046;-68
2023/09/01 09:24:41;;;;;;;6.40;5.10;;;;;;;;;;5083740;28;20375;-68
2023/09/01 09:27:06;;;;;;;6.25;4.45;;;;;;;;;;5091008;28;20481;-68
2023/09/01 09:29:41;;;;;;;3.33;2.25;;;;;;;;;;5072036;28;20060;-68
2023/09/01 09:32:25;;;;;;;4.03;1.90;;;;;;;;;;5082978;28;20035;-68
2023/09/01 09:35:04;;;;;;;3.28;1.92;;;;;;;;;;5086776;28;20019;-68
2023/09/01 09:37:29;;;;;;;2.97;1.63;;;;;;;;;;5061271;28;20059;-67
2023/09/01 09:40:08;;;;;;;3.00;1.47;;;;;;;;;;5088873;28;20490;-67
2023/09/01 09:42:38;;;;;;;2.05;1.08;;;;;;;;;;5079778;28;20361;-67
2023/09/01 09:45:03;;;;;;;4.72;2.67;;;;;;;;;;5088073;28;20022;-68
2023/09/01 09:47:28;;;;;;;3.65;2.00;;;;;;;;;;5087211;28;20020;-69
2023/09/01 09:49:54;;;;;;;6.15;2.20;;;;;;;;;;5066609;28;20076;-69
2023/09/01 09:52:20;;;;;;;2.83;1.63;;;;;;;;;;5062644;28;20027;-69
2023/09/01 09:54:48;;;;;;;3.67;2.30;;;;;;;;;;5032940;28;20264;-69
2023/09/01 09:57:14;;;;;;;3.83;2.42;;;;;;;;;;5043118;28;20028;-69
2023/09/01 09:59:45;;;;;;;5.13;2.50;;;;;;;;;;5056303;28;20024;-68
2023/09/01 10:02:22;;;;;;;4.53;2.80;;;;;;;;;;5065887;28;20059;-68
2023/09/01 10:04:47;;;;;;;3.50;2.45;;;;;;;;;;5067320;28;20035;-67
2023/09/01 10:07:13;;;;;;;4.50;2.67;;;;;;;;;;5089367;28;20032;-67
2023/09/01 10:09:39;;;;;;;4.75;2.78;;;;;;;;;;5073143;28;20064;-66
2023/09/01 10:12:04;;;;;;;3.72;2.75;;;;;;;;;;5039892;28;20064;-67
2023/09/01 10:14:30;;;;;;;5.15;3.15;;;;;;;;;;5081354;28;20048;-67
2023/09/01 10:16:57;;;;;;;3.97;2.50;;;;;;;;;;5060495;28;20058;-67
2023/09/01 10:19:24;;;;;;;4.10;2.38;;;;;;;;;;5071671;28;20036;-67
2023/09/01 10:21:49;;;;;;;3.72;2.50;;;;;;;;;;5090360;28;20437;-67
2023/09/01 10:24:16;;;;;;;4.53;2.63;;;;;;;;;;5091803;28;20066;-68
2023/09/01 10:26:41;;;;;;;4.38;2.80;;;;;;;;;;5086188;28;20032;-67
2023/09/01 10:29:07;;;;;;;7.60;2.95;;;;;;;;;;5077678;28;20089;-66
2023/09/01 10:31:33;;;;;;;6.57;2.75;;;;;;;;;;5090840;28;20031;-66
2023/09/01 10:34:08;;;;;;;4.10;2.65;;;;;;;;;;5079964;28;20126;-66
2023/09/01 10:36:37;;;;;;;4.03;2.97;;;;;;;;;;5047526;28;20024;-67
2023/09/01 10:39:23;;;;;;;5.97;3.22;;;;;;;;;;5077980;28;20071;-67
2023/09/01 10:41:58;;;;;;;8.07;3.45;;;;;;;;;;5076199;28;20387;-67
2023/09/01 10:44:44;;;;;;;4.93;3.63;;;;;;;;;;5087236;28;20036;-67
2023/09/01 10:47:38;;;;;;;8.07;3.00;;;;;;;;;;5083812;28;20598;-66
2023/09/01 10:50:03;;;;;;;3.72;2.28;;;;;;;;;;5074618;28;20048;-66
2023/09/01 10:52:31;;;;;;;3.00;2.00;;;;;;;;;;5079578;28;20079;-66
2023/09/01 10:54:59;;;;;;;3.15;1.92;;;;;;;;;;5081343;28;20049;-66
2023/09/01 10:57:37;;;;;;;3.15;2.13;;;;;;;;;;5084997;28;20024;-71
2023/09/01 11:00:22;;;;;;;3.47;2.15;;;;;;;;;;5087197;28;20034;-65
2023/09/01 11:02:47;;;;;;;3.35;1.60;;;;;;;;;;5084897;28;20027;-66
2023/09/01 11:05:13;;;;;;;2.47;1.45;;;;;;;;;;5092516;28;20089;-67
2023/09/01 11:07:56;;;;;;;2.70;1.50;;;;;;;;;;5062539;28;20765;-67
2023/09/01 11:10:25;;;;;;;3.30;1.88;;;;;;;;;;5051264;28;20518;-66
2023/09/01 11:12:50;;;;;;;3.17;1.75;;;;;;;;;;5063989;28;20031;-67
2023/09/01 11:15:15;;;;;;;3.10;1.42;;;;;;;;;;5061177;28;20020;-67
2023/09/01 11:17:45;;;;;;;3.10;1.45;;;;;;;;;;5070579;28;20039;-67
2023/09/01 11:20:11;;;;;;;3.08;1.60;;;;;;;;;;5061536;28;20123;-67
2023/09/01 11:22:38;;;;;;;3.80;2.15;;;;;;;;;;5075605;28;20462;-67
2023/09/01 11:25:03;;;;;;;2.97;1.80;;;;;;;;;;5085973;28;20024;-68
2023/09/01 11:27:28;;;;;;;1.73;0.82;;;;;;;;;;5068539;28;20816;-67
2023/09/01 11:29:54;;;;;;;2.30;0.80;;;;;;;;;;5047551;28;20854;-66
2023/09/01 11:32:26;;;;;;;2.03;0.90;;;;;;;;;;5056382;28;20027;-67
2023/09/01 11:34:51;;;;;;;2.00;1.05;;;;;;;;;;5046795;28;20030;-67
2023/09/01 11:37:16;;;;;;;1.53;0.80;;;;;;;;;;5047223;28;20028;-67
2023/09/01 11:39:41;;;;;;;3.47;0.67;;;;;;;;;;5040802;28;20290;-68
2023/09/01 11:42:07;;;;;;;2.70;0.60;;;;;;;;;;5049349;28;20274;-67
2023/09/01 11:44:32;;;;;;;1.88;0.80;;;;;;;;;;5052839;28;20275;-68
2023/09/01 11:46:57;;;;;;;1.73;0.80;;;;;;;;;;5083627;28;20020;-67
2023/09/01 11:49:23;;;;;;;2.67;1.20;;;;;;;;;;5089642;28;20388;-66
2023/09/01 11:51:48;;;;;;;2.50;1.30;;;;;;;;;;5083750;28;20028;-66
2023/09/01 11:54:13;;;;;;;1.73;0.80;;;;;;;;;;5079242;28;20081;-66
2023/09/01 11:56:42;;;;;;;2.37;0.63;;;;;;;;;;5089530;28;20020;-66
2023/09/01 11:59:07;;;;;;;1.05;0.50;;;;;;;;;;5079207;28;20290;-67
2023/09/01 12:01:38;;;;;;;1.17;0.50;;;;;;;;;;5059091;28;20047;-66
2023/09/01 12:04:07;;;;;;;1.05;0.47;;;;;;;;;;5067879;28;20395;-67
2023/09/01 12:06:37;;;;;;;1.00;0.40;;;;;;;;;;5056753;28;20075;-68
2023/09/01 12:09:13;;;;;;;0.88;0.30;;;;;;;;;;5057571;28;20036;-66
2023/09/01 12:12:02;;;;;;;2.75;0.70;;;;;;;;;;5080692;28;20031;-67
2023/09/01 12:14:28;;;;;;;1.48;0.60;;;;;;;;;;5071398;28;20023;-67
2023/09/01 12:16:54;;;;;;;2.00;0.90;;;;;;;;;;5089160;28;20048;-67
2023/09/01 12:19:23;;;;;;;1.00;0.40;;;;;;;;;;5081657;28;20071;-68
2023/09/01 12:21:49;;;;;;;1.10;0.60;;;;;;;;;;5079149;28;21000;-67
2023/09/01 12:24:14;;;;;;;1.02;0.38;;;;;;;;;;5082366;28;20028;-66
2023/09/01 12:26:39;;;;;;;1.10;0.40;;;;;;;;;;5088298;28;20023;-67
2023/09/01 12:29:04;;;;;;;0.90;0.40;;;;;;;;;;5090989;28;20839;-66
2023/09/01 12:31:30;;;;;;;0.75;0.38;;;;;;;;;;5073103;28;20646;-66
2023/09/01 12:33:55;;;;;;;0.77;0.30;;;;;;;;;;5090436;28;20375;-67
2023/09/01 12:36:20;;;;;;;0.63;0.30;;;;;;;;;;5091730;28;20024;-67
2023/09/01 12:38:45;;;;;;;0.70;0.20;;;;;;;;;;5090645;28;20470;-66
2023/09/01 12:41:11;;;;;;;0.97;0.47;;;;;;;;;;5090785;28;20305;-66
2023/09/01 12:43:36;;;;;;;0.40;0.20;;;;;;;;;;5090174;28;20349;-67
2023/09/01 12:46:01;;;;;;;0.95;0.30;;;;;;;;;;5089689;28;20331;-67
2023/09/01 12:48:26;;;;;;;0.98;0.25;;;;;;;;;;5089018;28;20028;-66
2023/09/01 12:50:52;;;;;;;0.80;0.40;;;;;;;;;;5089642;28;20157;-70
2023/09/01 12:53:17;;;;;;;1.35;0.50;;;;;;;;;;5087589;28;20047;-68
2023/09/01 12:55:45;;;;;;;0.75;0.30;;;;;;;;;;5071854;28;20036;-67
2023/09/01 12:58:10;;;;;;;1.30;0.50;;;;;;;;;;5087420;28;20020;-67
2023/09/01 13:00:36;;;;;;;1.15;0.43;;;;;;;;;;5089957;28;20039;-67
2023/09/01 13:03:01;;;;;;;0.80;0.40;;;;;;;;;;5087144;28;20033;-67
2023/09/01 13:05:28;;;;;;;0.95;0.40;;;;;;;;;;5082227;28;20473;-67
2023/09/01 13:07:54;;;;;;;0.43;0.20;;;;;;;;;;5085668;28;20038;-67
2023/09/01 13:10:19;;;;;;;1.60;0.40;;;;;;;;;;5082842;28;20028;-67
2023/09/01 13:12:45;;;;;;;0.70;0.30;;;;;;;;;;5075369;28;20279;-68
2023/09/01 13:15:11;;;;;;;0.57;0.20;;;;;;;;;;5082445;28;20062;-68
2023/09/01 13:17:36;;;;;;;0.47;0.20;;;;;;;;;;5090691;28;20146;-68
2023/09/01 13:20:01;;;;;;;0.60;0.30;;;;;;;;;;5090685;28;20036;-68
2023/09/01 13:22:27;;;;;;;1.00;0.30;;;;;;;;;;5075963;28;20281;-68
2023/09/01 13:24:52;;;;;;;0.93;0.32;;;;;;;;;;5087114;28;20032;-68
2023/09/01 13:27:18;;;;;;;5.93;1.23;;;;;;;;;;5074556;28;20066;-69
2023/09/01 13:29:43;;;;;;;0.77;0.40;;;;;;;;;;5084258;28;20457;-68
2023/09/01 13:32:08;;;;;;;0.50;0.20;;;;;;;;;;5082922;28;20033;-68
2023/09/01 13:34:33;;;;;;;0.80;0.30;;;;;;;;;;5086007;28;20294;-68
2023/09/01 13:36:59;;;;;;;1.10;0.40;;;;;;;;;;5079505;28;20081;-68
2023/09/01 13:39:24;;;;;;;0.73;0.20;;;;;;;;;;5080500;28;20319;-68
2023/09/01 13:41:49;;;;;;;2.10;0.30;;;;;;;;;;5084829;28;20028;-70
2023/09/01 13:44:14;;;;;;;1.38;0.30;;;;;;;;;;5079460;28;20267;-69
2023/09/01 13:46:39;;;;;;;0.90;0.30;;;;;;;;;;5077289;28;20385;-69
2023/09/01 13:49:07;;;;;;;1.77;0.20;;;;;;;;;;5083232;28;20358;-68
2023/09/01 13:51:32;;;;;;;1.48;0.28;;;;;;;;;;5084374;28;20361;-68
2023/09/01 13:53:58;;;;;;;0.52;0.20;;;;;;;;;;5075802;28;20095;-67
2023/09/01 13:56:23;;;;;;;0.85;0.38;;;;;;;;;;5075963;28;20177;-67
2023/09/01 13:58:48;;;;;;;0.93;0.38;;;;;;;;;;5085632;28;20035;-68
2023/09/01 14:01:14;;;;;;;1.25;0.22;;;;;;;;;;5081959;28;20028;-65
2023/09/01 14:03:39;;;;;;;0.85;0.40;;;;;;;;;;5073449;28;20036;-68
2023/09/01 14:06:05;;;;;;;1.55;0.30;;;;;;;;;;5087667;28;20073;-67
2023/09/01 14:08:30;;;;;;;0.63;0.20;;;;;;;;;;5080471;28;20024;-67
2023/09/01 14:10:56;;;;;;;0.65;0.30;;;;;;;;;;5076945;28;20502;-69
2023/09/01 14:13:22;;;;;;;0.85;0.30;;;;;;;;;;5079334;28;20024;-68
2023/09/01 14:15:48;;;;;;;1.17;0.30;;;;;;;;;;5086935;28;20032;-68
2023/09/01 14:18:13;;;;;;;1.02;0.30;;;;;;;;;;5082867;28;20036;-68
2023/09/01 14:20:38;;;;;;;0.67;0.20;;;;;;;;;;5079757;28;20027;-67
2023/09/01 14:23:03;;;;;;;3.20;0.20;;;;;;;;;;5077611;28;20345;-68
2023/09/01 14:25:28;;;;;;;0.50;0.20;;;;;;;;;;5084136;28;20277;-69
2023/09/01 14:27:54;;;;;;;1.10;0.20;;;;;;;;;;5076579;28;20032;-67
2023/09/01 14:30:19;;;;;;;0.70;0.30;;;;;;;;;;5090125;28;20339;-68
2023/09/01 14:32:44;;;;;;;2.57;0.40;;;;;;;;;;5082137;28;20290;-68
2023/09/01 14:35:09;;;;;;;0.47;0.20;;;;;;;;;;5082316;28;20618;-69
2023/09/01 14:37:35;;;;;;;0.80;0.30;;;;;;;;;;5083388;28;20309;-69